sensor_id;sensor_type;location;lat;lon;timestamp;P1;durP1;ratioP1;P2;durP2;ratioP2
43690;SDS011;29293;52.190;21.226;2023-04-02T00:02:57;12.20;;;7.50;;
43690;SDS011;29293;52.190;21.226;2023-04-02T00:18:08;14.50;;;8.90;;
43690;SDS011;29293;52.190;21.226;2023-04-02T00:33:19;16.80;;;9.40;;
43690;SDS011;29293;52.190;21.226;2023-04-02T00:48:34;17.60;;;9.70;;
43690;SDS011;29293;52.190;21.226;2023-04-02T01:03:52;15.60;;;8.90;;
43690;SDS011;29293;52.190;21.226;2023-04-02T01:19:11;13.20;;;7.80;;
43690;SDS011;29293;52.190;21.226;2023-04-02T01:34:36;10.90;;;7.40;;
43690;SDS011;29293;52.190;21.226;2023-04-02T01:49:47;10.50;;;7.00;;
43690;SDS011;29293;52.190;21.226;2023-04-02T02:04:57;11.10;;;7.30;;
43690;SDS011;29293;52.190;21.226;2023-04-02T02:20:04;13.60;;;8.40;;
43690;SDS011;29293;52.190;21.226;2023-04-02T02:35:17;14.10;;;8.70;;
43690;SDS011;29293;52.190;21.226;2023-04-02T02:50:28;12.10;;;8.50;;
43690;SDS011;29293;52.190;21.226;2023-04-02T03:05:37;16.10;;;9.70;;
43690;SDS011;29293;52.190;21.226;2023-04-02T03:35:56;13.80;;;8.20;;
43690;SDS011;29293;52.190;21.226;2023-04-02T03:51:11;10.40;;;6.70;;
43690;SDS011;29293;52.190;21.226;2023-04-02T04:06:23;12.40;;;7.50;;
43690;SDS011;29293;52.190;21.226;2023-04-02T04:21:32;13.80;;;8.80;;
43690;SDS011;29293;52.190;21.226;2023-04-02T04:36:42;15.80;;;10.20;;
43690;SDS011;29293;52.190;21.226;2023-04-02T04:51:57;18.10;;;11.50;;
43690;SDS011;29293;52.190;21.226;2023-04-02T05:07:12;23.10;;;13.90;;
43690;SDS011;29293;52.190;21.226;2023-04-02T05:22:24;26.20;;;15.10;;
43690;SDS011;29293;52.190;21.226;2023-04-02T05:37:37;29.80;;;16.10;;
43690;SDS011;29293;52.190;21.226;2023-04-02T05:52:46;28.50;;;16.20;;
43690;SDS011;29293;52.190;21.226;2023-04-02T06:07:57;29.20;;;15.60;;
43690;SDS011;29293;52.190;21.226;2023-04-02T06:23:11;23.80;;;14.20;;
43690;SDS011;29293;52.190;21.226;2023-04-02T06:38:23;23.80;;;14.60;;
43690;SDS011;29293;52.190;21.226;2023-04-02T06:53:34;17.40;;;10.50;;
43690;SDS011;29293;52.190;21.226;2023-04-02T07:08:43;14.20;;;8.90;;
43690;SDS011;29293;52.190;21.226;2023-04-02T07:23:51;17.30;;;11.30;;
43690;SDS011;29293;52.190;21.226;2023-04-02T07:39:00;15.30;;;9.90;;
43690;SDS011;29293;52.190;21.226;2023-04-02T07:54:07;12.80;;;8.10;;
43690;SDS011;29293;52.190;21.226;2023-04-02T08:24:22;9.80;;;5.80;;
43690;SDS011;29293;52.190;21.226;2023-04-02T08:39:29;10.30;;;6.30;;
43690;SDS011;29293;52.190;21.226;2023-04-02T08:54:38;10.80;;;6.70;;
43690;SDS011;29293;52.190;21.226;2023-04-02T09:09:47;8.70;;;5.70;;
43690;SDS011;29293;52.190;21.226;2023-04-02T09:40:22;9.40;;;5.80;;
43690;SDS011;29293;52.190;21.226;2023-04-02T09:55:31;7.90;;;5.20;;
43690;SDS011;29293;52.190;21.226;2023-04-02T10:10:39;10.70;;;5.40;;
43690;SDS011;29293;52.190;21.226;2023-04-02T10:25:52;8.00;;;5.00;;
43690;SDS011;29293;52.190;21.226;2023-04-02T10:41:07;6.90;;;4.70;;
43690;SDS011;29293;52.190;21.226;2023-04-02T10:56:25;9.90;;;5.80;;
43690;SDS011;29293;52.190;21.226;2023-04-02T11:11:34;8.40;;;5.50;;
43690;SDS011;29293;52.190;21.226;2023-04-02T11:26:46;15.40;;;9.60;;
43690;SDS011;29293;52.190;21.226;2023-04-02T11:42:00;17.60;;;11.40;;
43690;SDS011;29293;52.190;21.226;2023-04-02T11:57:12;14.20;;;9.30;;
43690;SDS011;29293;52.190;21.226;2023-04-02T12:12:32;11.80;;;8.10;;
43690;SDS011;29293;52.190;21.226;2023-04-02T12:27:41;12.30;;;8.00;;
43690;SDS011;29293;52.190;21.226;2023-04-02T12:42:49;14.60;;;8.90;;
43690;SDS011;29293;52.190;21.226;2023-04-02T12:57:56;10.60;;;7.00;;
43690;SDS011;29293;52.190;21.226;2023-04-02T13:13:04;11.30;;;7.20;;
43690;SDS011;29293;52.190;21.226;2023-04-02T13:28:17;12.40;;;7.20;;
43690;SDS011;29293;52.190;21.226;2023-04-02T13:43:24;7.90;;;5.20;;
43690;SDS011;29293;52.190;21.226;2023-04-02T13:58:32;7.80;;;4.60;;
43690;SDS011;29293;52.190;21.226;2023-04-02T14:13:44;8.00;;;4.80;;
43690;SDS011;29293;52.190;21.226;2023-04-02T14:29:04;6.40;;;4.10;;
43690;SDS011;29293;52.190;21.226;2023-04-02T14:44:16;6.60;;;4.40;;
43690;SDS011;29293;52.190;21.226;2023-04-02T14:59:35;7.40;;;4.40;;
43690;SDS011;29293;52.190;21.226;2023-04-02T15:14:57;7.10;;;4.10;;
43690;SDS011;29293;52.190;21.226;2023-04-02T15:30:12;8.00;;;5.00;;
43690;SDS011;29293;52.190;21.226;2023-04-02T15:45:28;9.00;;;6.00;;
43690;SDS011;29293;52.190;21.226;2023-04-02T16:00:40;10.10;;;6.60;;
43690;SDS011;29293;52.190;21.226;2023-04-02T16:15:57;14.00;;;8.50;;
43690;SDS011;29293;52.190;21.226;2023-04-02T16:31:09;17.90;;;10.00;;
43690;SDS011;29293;52.190;21.226;2023-04-02T16:46:25;14.30;;;8.30;;
43690;SDS011;29293;52.190;21.226;2023-04-02T17:11:19;12.70;;;6.90;;
43690;SDS011;29293;52.190;21.226;2023-04-02T17:26:34;16.60;;;9.10;;
43690;SDS011;29293;52.190;21.226;2023-04-02T17:41:45;13.10;;;7.10;;
43690;SDS011;29293;52.190;21.226;2023-04-02T17:56:58;15.10;;;7.70;;
43690;SDS011;29293;52.190;21.226;2023-04-02T18:12:26;12.10;;;6.90;;
43690;SDS011;29293;52.190;21.226;2023-04-02T18:28:00;10.10;;;5.50;;
43690;SDS011;29293;52.190;21.226;2023-04-02T18:43:28;12.10;;;6.40;;
43690;SDS011;29293;52.190;21.226;2023-04-02T18:58:47;13.60;;;6.60;;
43690;SDS011;29293;52.190;21.226;2023-04-02T19:29:26;12.60;;;5.60;;
43690;SDS011;29293;52.190;21.226;2023-04-02T19:44:44;6.90;;;4.40;;
43690;SDS011;29293;52.190;21.226;2023-04-02T19:59:54;7.50;;;3.60;;
43690;SDS011;29293;52.190;21.226;2023-04-02T20:15:01;8.10;;;4.30;;
43690;SDS011;29293;52.190;21.226;2023-04-02T20:30:09;10.10;;;5.30;;
43690;SDS011;29293;52.190;21.226;2023-04-02T20:45:18;8.60;;;4.60;;
43690;SDS011;29293;52.190;21.226;2023-04-02T21:00:25;9.50;;;4.90;;
43690;SDS011;29293;52.190;21.226;2023-04-02T21:15:32;8.70;;;4.60;;
43690;SDS011;29293;52.190;21.226;2023-04-02T21:30:39;13.20;;;5.20;;
43690;SDS011;29293;52.190;21.226;2023-04-02T21:45:45;9.10;;;3.60;;
43690;SDS011;29293;52.190;21.226;2023-04-02T22:00:52;8.30;;;3.30;;
43690;SDS011;29293;52.190;21.226;2023-04-02T22:16:00;4.50;;;2.10;;
43690;SDS011;29293;52.190;21.226;2023-04-02T22:31:08;4.50;;;1.80;;
43690;SDS011;29293;52.190;21.226;2023-04-02T22:46:18;3.80;;;1.60;;
43690;SDS011;29293;52.190;21.226;2023-04-02T23:01:28;4.50;;;2.00;;
43690;SDS011;29293;52.190;21.226;2023-04-02T23:16:37;6.60;;;2.20;;
43690;SDS011;29293;52.190;21.226;2023-04-02T23:31:46;4.20;;;1.70;;
43690;SDS011;29293;52.190;21.226;2023-04-02T23:46:53;4.80;;;1.60;;
